createdAt,value
2022-09-26T00:00:13.478Z,100306.53
2022-09-26T00:02:39.885Z,100302.13
2022-09-26T00:05:06.924Z,100295.81
2022-09-26T00:07:34.539Z,100296.78
2022-09-26T00:10:00.888Z,100291.41
2022-09-26T00:12:27.297Z,100289.59
2022-09-26T00:14:53.616Z,100283.38
2022-09-26T00:17:19.960Z,100283.38
2022-09-26T00:19:46.337Z,100278.19
2022-09-26T00:22:12.722Z,100278.03
2022-09-26T00:24:40.340Z,100278.03
2022-09-26T00:27:06.692Z,100276.34
2022-09-26T00:29:33.007Z,100276.34
2022-09-26T00:31:59.455Z,100275.50
2022-09-26T00:34:25.807Z,100271.00
2022-09-26T00:36:52.243Z,100272.69
2022-09-26T00:39:18.601Z,100273.53
2022-09-26T00:41:46.281Z,100271.84
2022-09-26T00:44:26.938Z,100271.00
2022-09-26T00:46:53.295Z,100261.97
2022-09-26T00:49:23.242Z,100256.63
2022-09-26T00:51:51.376Z,100252.13
2022-09-26T00:54:19.056Z,100240.59
2022-09-26T00:56:48.970Z,100240.59
2022-09-26T00:59:18.222Z,100228.94
2022-09-26T01:01:44.881Z,100212.00
2022-09-26T01:04:12.344Z,100210.31
2022-09-26T01:06:38.715Z,100201.28
2022-09-26T01:09:06.155Z,100200.44
2022-09-26T01:11:33.929Z,100191.47
2022-09-26T01:14:02.379Z,100183.44
2022-09-26T01:16:28.741Z,100181.59
2022-09-26T01:18:55.290Z,100169.06
2022-09-26T01:21:32.858Z,100170.75
2022-09-26T01:24:11.988Z,100165.31
2022-09-26T01:26:47.435Z,100156.53
2022-09-26T01:29:26.971Z,100156.53
2022-09-26T01:32:01.411Z,100147.53
2022-09-26T01:34:33.384Z,100134.16
2022-09-26T01:37:05.256Z,100130.53
2022-09-26T01:39:41.142Z,100132.47
2022-09-26T01:42:11.392Z,100131.63
2022-09-26T01:44:41.648Z,100123.34
2022-09-26T01:47:12.861Z,100116.25
2022-09-26T01:49:44.731Z,100121.63
2022-09-26T01:52:16.684Z,100114.47
2022-09-26T01:54:45.428Z,100103.75
2022-09-26T01:57:14.248Z,100100.94
2022-09-26T01:59:43.727Z,100096.56
2022-09-26T02:02:14.494Z,100086.00
2022-09-26T02:04:42.747Z,100074.34
2022-09-26T02:07:12.118Z,100072.63
2022-09-26T02:09:40.372Z,100069.94
2022-09-26T02:12:08.673Z,100071.66
2022-09-26T02:14:38.168Z,100064.47
2022-09-26T02:17:07.719Z,100067.16
2022-09-26T02:19:38.714Z,100066.31
2022-09-26T02:22:05.108Z,100057.41
2022-09-26T02:24:31.461Z,100056.44
2022-09-26T02:26:57.872Z,100060.06
2022-09-26T02:29:25.226Z,100054.72
2022-09-26T02:31:58.786Z,100053.88
2022-09-26T02:34:25.774Z,100053.03
2022-09-26T02:36:54.096Z,100052.19
2022-09-26T02:39:20.459Z,100043.31
2022-09-26T02:41:48.684Z,100035.28
2022-09-26T02:44:21.983Z,100032.47
2022-09-26T02:46:57.728Z,100021.78
2022-09-26T02:49:33.496Z,100022.63
2022-09-26T02:52:08.680Z,100008.28
2022-09-26T02:54:40.275Z,100008.28
2022-09-26T02:57:12.845Z,100013.63
2022-09-26T02:59:45.058Z,100013.75
2022-09-26T03:02:13.671Z,100013.63
2022-09-26T03:04:45.359Z,100009.25
2022-09-26T03:07:16.164Z,100013.75
2022-09-26T03:09:43.377Z,99998.53
2022-09-26T03:12:09.999Z,99994.91
2022-09-26T03:14:37.956Z,99992.22
2022-09-26T03:17:04.788Z,99988.72
2022-09-26T03:19:35.802Z,99972.50
2022-09-26T03:22:02.213Z,99968.16
2022-09-26T03:24:29.946Z,99965.47
2022-09-26T03:26:56.697Z,99962.78
2022-09-26T03:29:22.985Z,99962.78
2022-09-26T03:31:49.495Z,99946.75
2022-09-26T03:34:15.878Z,99931.38
2022-09-26T03:36:42.430Z,99923.50
2022-09-26T03:39:08.952Z,99919.00
2022-09-26T03:41:36.581Z,99923.34
2022-09-26T03:44:02.996Z,99921.66
2022-09-26T03:46:29.397Z,99911.13
2022-09-26T03:48:55.700Z,99907.44
2022-09-26T03:51:22.059Z,99905.63
2022-09-26T03:53:48.402Z,99891.97
2022-09-26T03:56:15.788Z,99886.88
2022-09-26T03:58:43.905Z,99886.88
2022-09-26T04:01:11.334Z,99879.84
2022-09-26T04:03:38.729Z,99870.00
2022-09-26T04:06:06.022Z,99874.22
2022-09-26T04:08:32.391Z,99872.66
2022-09-26T04:11:01.351Z,99862.66
2022-09-26T04:13:50.055Z,99854.50
2022-09-26T04:16:15.403Z,99849.16
2022-09-26T04:18:41.863Z,99845.75
2022-09-26T04:21:10.187Z,99831.69
2022-09-26T04:23:37.908Z,99836.19
2022-09-26T04:26:04.472Z,99835.31
2022-09-26T04:28:30.955Z,99834.22
2022-09-26T04:30:57.442Z,99831.53
2022-09-26T04:33:25.095Z,99831.69
2022-09-26T04:35:51.470Z,99825.50
2022-09-26T04:38:17.857Z,99818.31
2022-09-26T04:40:44.261Z,99814.41
2022-09-26T04:43:11.307Z,99800.97
2022-09-26T04:45:39.907Z,99790.94
2022-09-26T04:48:06.380Z,99781.66
2022-09-26T04:50:34.093Z,99767.81
2022-09-26T04:53:00.506Z,99770.06
2022-09-26T04:55:26.837Z,99756.34
2022-09-26T04:57:53.215Z,99749.06
2022-09-26T05:00:19.738Z,99734.78
2022-09-26T05:02:46.050Z,99738.00
2022-09-26T05:05:12.491Z,99728.91
2022-09-26T05:07:40.943Z,99726.72
2022-09-26T05:10:07.654Z,99718.78
2022-09-26T05:12:34.015Z,99715.78
2022-09-26T05:15:00.596Z,99722.91
2022-09-26T05:17:27.086Z,99716.72
2022-09-26T05:19:53.550Z,99722.66
2022-09-26T05:22:20.060Z,99721.81
2022-09-26T05:24:47.741Z,99709.97
2022-09-26T05:27:14.182Z,99701.84
2022-09-26T05:29:40.630Z,99700.44
2022-09-26T05:32:06.981Z,99698.91
2022-09-26T05:34:33.443Z,99697.53
2022-09-26T05:36:59.799Z,99688.81
2022-09-26T05:39:26.130Z,99687.81
2022-09-26T05:41:54.330Z,99687.94
2022-09-26T05:44:20.862Z,99675.00
2022-09-26T05:46:47.425Z,99674.41
2022-09-26T05:49:13.960Z,99661.75
2022-09-26T05:51:40.362Z,99661.63
2022-09-26T05:54:07.155Z,99661.19
2022-09-26T05:56:33.496Z,99655.84
2022-09-26T05:59:01.150Z,99648.81
2022-09-26T06:01:27.548Z,99638.13
2022-09-26T06:03:53.934Z,99635.72
2022-09-26T06:06:20.449Z,99638.41
2022-09-26T06:08:47.862Z,99633.31
2022-09-26T06:11:15.341Z,99612.09
2022-09-26T06:13:42.410Z,99618.13
2022-09-26T06:16:12.034Z,99615.59
2022-09-26T06:18:38.803Z,99615.59
2022-09-26T06:21:05.694Z,99604.06
2022-09-26T06:23:32.229Z,99611.94
2022-09-26T06:25:58.667Z,99613.78
2022-09-26T06:28:25.017Z,99609.41
2022-09-26T06:30:51.390Z,99605.03
2022-09-26T06:33:20.455Z,99607.69
2022-09-26T06:35:46.874Z,99598.00
2022-09-26T06:38:13.423Z,99594.34
2022-09-26T06:40:39.823Z,99592.50
2022-09-26T06:43:06.197Z,99590.41
2022-09-26T06:45:32.526Z,99571.88
2022-09-26T06:48:00.291Z,99569.19
2022-09-26T06:50:28.072Z,99567.53
2022-09-26T06:52:54.469Z,99567.81
2022-09-26T06:55:20.870Z,99553.44
2022-09-26T06:57:47.374Z,99559.34
2022-09-26T07:00:15.256Z,99563.16
2022-09-26T07:02:48.799Z,99557.53
2022-09-26T07:05:15.150Z,99555.16
2022-09-26T07:07:42.815Z,99543.16
2022-09-26T07:10:09.314Z,99554.00
2022-09-26T07:12:35.633Z,99556.97
2022-09-26T07:15:01.948Z,99542.19
2022-09-26T07:17:28.385Z,99551.59
2022-09-26T07:19:54.721Z,99548.94
2022-09-26T07:22:21.168Z,99542.19
2022-09-26T07:24:48.821Z,99532.03
2022-09-26T07:27:15.153Z,99515.28
2022-09-26T07:29:41.606Z,99525.41
2022-09-26T07:32:07.990Z,99509.25
2022-09-26T07:34:34.339Z,99517.66
2022-09-26T07:37:00.676Z,99504.00
2022-09-26T07:39:27.002Z,99500.34
2022-09-26T07:41:54.689Z,99501.06
2022-09-26T07:47:07.402Z,99489.22
2022-09-26T07:49:33.775Z,99474.53
2022-09-26T07:52:00.121Z,99479.16
2022-09-26T07:54:26.556Z,99471.94
2022-09-26T07:56:52.893Z,99467.16
2022-09-26T07:59:20.575Z,99458.16
2022-09-26T08:01:47.093Z,99456.28
2022-09-26T08:04:13.924Z,99446.41
2022-09-26T08:06:40.327Z,99452.63
2022-09-26T08:09:06.753Z,99440.75
2022-09-26T08:11:33.858Z,99439.13
2022-09-26T08:14:00.196Z,99428.44
2022-09-26T08:16:27.993Z,99425.66
2022-09-26T08:18:54.421Z,99423.91
2022-09-26T08:21:21.593Z,99423.47
2022-09-26T08:23:47.935Z,99413.13
2022-09-26T08:26:14.406Z,99408.84
2022-09-26T08:28:40.975Z,99415.44
2022-09-26T08:31:07.528Z,99420.47
2022-09-26T08:33:36.290Z,99399.88
2022-09-26T08:36:03.669Z,99389.53
2022-09-26T08:38:30.027Z,99383.47
2022-09-26T08:40:59.670Z,99386.88
2022-09-26T08:43:35.317Z,99381.63
2022-09-26T08:46:05.354Z,99367.28
2022-09-26T08:48:38.671Z,99374.59
2022-09-26T08:51:10.672Z,99363.47
2022-09-26T08:53:40.529Z,99357.16
2022-09-26T08:56:15.093Z,99347.66
2022-09-26T08:58:44.266Z,99344.56
2022-09-26T09:01:12.170Z,99340.00
2022-09-26T09:03:48.073Z,99329.72
2022-09-26T09:06:14.878Z,99326.56
2022-09-26T09:08:42.922Z,99319.38
2022-09-26T09:11:13.295Z,99325.56
2022-09-26T09:13:47.846Z,99308.38
2022-09-26T09:16:23.107Z,99315.56
2022-09-26T09:18:54.036Z,99325.97
2022-09-26T09:21:25.455Z,99324.25
2022-09-26T09:23:57.930Z,99316.50
2022-09-26T09:29:31.611Z,99303.09
2022-09-26T09:32:00.170Z,99289.78
2022-09-26T09:34:28.927Z,99279.25
2022-09-26T09:36:57.052Z,99282.44
2022-09-26T09:39:27.373Z,99273.56
2022-09-26T09:41:56.692Z,99275.03
2022-09-26T09:44:29.769Z,99257.03
2022-09-26T09:46:56.305Z,99250.97
2022-09-26T09:49:24.445Z,99249.69
2022-09-26T09:51:58.015Z,99242.50
2022-09-26T09:54:30.463Z,99235.09
2022-09-26T09:57:03.460Z,99223.53
2022-09-26T09:59:46.261Z,99231.56
2022-09-26T10:02:18.080Z,99214.50
2022-09-26T10:04:46.630Z,99212.53
2022-09-26T10:07:14.265Z,99209.59
2022-09-26T10:09:41.641Z,99205.16
2022-09-26T10:12:13.012Z,99193.09
2022-09-26T10:14:42.454Z,99192.25
2022-09-26T10:17:13.671Z,99190.75
2022-09-26T10:19:40.823Z,99192.94
2022-09-26T10:22:14.188Z,99190.50
2022-09-26T10:24:44.440Z,99183.50
2022-09-26T10:27:13.905Z,99181.16
2022-09-26T10:29:40.494Z,99167.44
2022-09-26T10:32:07.929Z,99161.59
2022-09-26T10:34:36.923Z,99156.75
2022-09-26T10:37:20.110Z,99155.75
2022-09-26T10:39:52.821Z,99158.38
2022-09-26T10:42:19.872Z,99146.38
2022-09-26T10:44:46.653Z,99159.81
2022-09-26T10:47:14.764Z,99172.59
2022-09-26T10:49:45.764Z,99202.53
2022-09-26T10:52:18.598Z,99216.63
2022-09-26T10:54:47.360Z,99223.13
2022-09-26T10:57:19.808Z,99217.13
2022-09-26T10:59:47.272Z,99226.06
2022-09-26T11:02:16.396Z,99235.59
2022-09-26T11:04:45.321Z,99236.75
2022-09-26T11:07:20.768Z,99246.34
2022-09-26T11:09:47.223Z,99253.91
2022-09-26T11:12:23.390Z,99264.25
2022-09-26T11:14:52.828Z,99262.94
2022-09-26T11:17:19.209Z,99273.47
2022-09-26T11:19:54.660Z,99251.22
2022-09-26T11:22:24.513Z,99256.47
2022-09-26T11:24:54.869Z,99256.81
2022-09-26T11:27:27.692Z,99248.97
2022-09-26T11:29:59.701Z,99259.38
2022-09-26T11:32:28.332Z,99256.88
2022-09-26T11:34:54.865Z,99251.31
2022-09-26T11:37:31.463Z,99236.72
2022-09-26T11:40:09.302Z,99224.97
2022-09-26T11:42:44.844Z,99235.72
2022-09-26T11:45:15.337Z,99232.44
2022-09-26T11:47:53.839Z,99222.47
2022-09-26T11:50:25.549Z,99230.91
2022-09-26T11:53:00.771Z,99236.97
2022-09-26T11:55:31.408Z,99226.44
2022-09-26T11:58:04.194Z,99227.13
2022-09-26T12:00:37.558Z,99236.31
2022-09-26T12:03:16.181Z,99226.31
2022-09-26T12:05:48.001Z,99223.00
2022-09-26T12:08:22.240Z,99227.47
2022-09-26T12:10:54.044Z,99235.59
2022-09-26T12:13:26.849Z,99224.31
2022-09-26T12:15:58.064Z,99228.28
2022-09-26T12:18:28.316Z,99233.31
2022-09-26T12:21:00.936Z,99228.56
2022-09-26T12:23:31.288Z,99234.97
2022-09-26T12:26:05.111Z,99226.31
2022-09-26T12:28:43.822Z,99227.19
2022-09-26T12:31:19.627Z,99225.28
2022-09-26T12:33:58.189Z,99225.41
2022-09-26T12:36:31.402Z,99219.44
2022-09-26T12:39:07.349Z,99227.91
2022-09-26T12:41:46.562Z,99213.50
2022-09-26T12:44:21.691Z,99213.84
2022-09-26T12:46:57.541Z,99205.97
2022-09-26T12:49:32.844Z,99209.81
2022-09-26T12:52:02.517Z,99231.41
2022-09-26T12:54:36.687Z,99223.94
2022-09-26T12:57:06.816Z,99215.78
2022-09-26T12:59:46.197Z,99217.25
2022-09-26T13:02:28.589Z,99223.59
2022-09-26T13:05:04.715Z,99234.13
2022-09-26T13:07:37.400Z,99229.28
2022-09-26T13:10:10.104Z,99215.19
2022-09-26T13:12:44.876Z,99216.91
2022-09-26T13:15:19.714Z,99229.09
2022-09-26T13:17:48.748Z,99217.78
2022-09-26T13:20:17.089Z,99227.78
2022-09-26T13:22:45.924Z,99223.72
2022-09-26T13:25:15.044Z,99229.16
2022-09-26T13:27:43.484Z,99226.88
2022-09-26T13:30:15.767Z,99233.31
2022-09-26T13:32:50.877Z,99233.56
2022-09-26T13:35:19.388Z,99236.16
2022-09-26T13:37:48.184Z,99230.94
2022-09-26T13:40:20.795Z,99229.72
2022-09-26T13:42:49.933Z,99211.75
2022-09-26T13:45:22.474Z,99218.88
2022-09-26T13:47:52.918Z,99232.34
2022-09-26T13:50:23.539Z,99224.75
2022-09-26T13:52:58.095Z,99225.69
2022-09-26T13:55:24.409Z,99232.97
2022-09-26T13:58:01.534Z,99233.28
2022-09-26T14:00:38.093Z,99236.94
2022-09-26T14:03:15.623Z,99235.38
2022-09-26T14:05:47.959Z,99239.34
2022-09-26T14:08:28.145Z,99235.94
2022-09-26T14:11:04.671Z,99245.50
2022-09-26T14:13:33.640Z,99245.19
2022-09-26T14:16:01.486Z,99243.97
2022-09-26T14:18:42.771Z,99249.19
2022-09-26T14:21:16.788Z,99244.84
2022-09-26T14:23:44.476Z,99243.81
2022-09-26T14:26:11.748Z,99245.25
2022-09-26T14:28:38.479Z,99254.88
2022-09-26T14:31:09.076Z,99249.56
2022-09-26T14:33:35.520Z,99253.97
2022-09-26T14:36:16.786Z,99261.44
2022-09-26T14:38:48.294Z,99272.88
2022-09-26T14:41:17.990Z,99275.13
2022-09-26T14:43:45.007Z,99276.06
2022-09-26T14:46:16.277Z,99271.25
2022-09-26T14:48:42.996Z,99263.53
2022-09-26T14:51:23.580Z,99266.16
2022-09-26T14:53:54.564Z,99253.47
2022-09-26T14:56:30.129Z,99261.41
2022-09-26T14:59:19.834Z,99252.72
2022-09-26T15:01:46.438Z,99248.38
2022-09-26T15:04:15.067Z,99248.06
2022-09-26T15:06:43.403Z,99253.25
2022-09-26T15:09:12.631Z,99252.56
2022-09-26T15:11:41.851Z,99253.56
2022-09-26T15:14:14.575Z,99259.97
2022-09-26T15:16:43.754Z,99259.03
2022-09-26T15:19:14.318Z,99258.44
2022-09-26T15:21:42.278Z,99254.16
2022-09-26T15:24:23.872Z,99263.91
2022-09-26T15:26:50.464Z,99264.44
2022-09-26T15:29:16.855Z,99269.81
2022-09-26T15:31:44.175Z,99268.50
2022-09-26T15:34:12.584Z,99269.97
2022-09-26T15:36:40.846Z,99262.06
2022-09-26T15:39:26.229Z,99274.66
2022-09-26T15:41:53.881Z,99274.00
2022-09-26T15:44:24.256Z,99269.44
2022-09-26T15:46:50.708Z,99266.03
2022-09-26T15:49:19.035Z,99281.16
2022-09-26T15:51:45.718Z,99270.78
2022-09-26T15:54:17.820Z,99269.81
2022-09-26T15:56:48.620Z,99275.50
2022-09-26T15:59:20.461Z,99279.69
2022-09-26T16:01:47.310Z,99294.63
2022-09-26T16:04:16.501Z,99306.06
2022-09-26T16:06:51.466Z,99315.78
2022-09-26T16:09:19.544Z,99312.72
2022-09-26T16:11:48.020Z,99306.84
2022-09-26T16:14:22.928Z,99295.47
2022-09-26T16:16:49.589Z,99293.91
2022-09-26T16:19:27.632Z,99293.22
2022-09-26T16:21:55.465Z,99296.28
2022-09-26T16:24:27.695Z,99295.28
2022-09-26T16:26:54.577Z,99300.16
2022-09-26T16:29:30.890Z,99295.81
2022-09-26T16:31:57.218Z,99301.03
2022-09-26T16:34:24.239Z,99302.16
2022-09-26T16:36:50.715Z,99306.19
2022-09-26T16:39:19.405Z,99305.03
2022-09-26T16:42:07.758Z,99297.41
2022-09-26T16:44:37.707Z,99303.31
2022-09-26T16:47:05.401Z,99297.44
2022-09-26T16:49:38.695Z,99301.34
2022-09-26T16:52:18.410Z,99295.66
2022-09-26T16:54:44.753Z,99300.34
2022-09-26T16:57:15.413Z,99290.44
2022-09-26T16:59:43.076Z,99284.53
2022-09-26T17:02:09.606Z,99292.56
2022-09-26T17:04:36.737Z,99288.75
2022-09-26T17:07:08.969Z,99289.84
2022-09-26T17:09:36.172Z,99304.44
2022-09-26T17:12:04.129Z,99309.34
2022-09-26T17:14:34.598Z,99312.00
2022-09-26T17:17:05.416Z,99311.03
2022-09-26T17:19:35.097Z,99315.06
2022-09-26T17:22:01.449Z,99309.19
2022-09-26T17:24:29.258Z,99314.25
2022-09-26T17:26:57.791Z,99310.44
2022-09-26T17:29:26.217Z,99311.84
2022-09-26T17:31:53.518Z,99314.72
2022-09-26T17:34:21.543Z,99317.31
2022-09-26T17:36:48.757Z,99320.34
2022-09-26T17:39:16.289Z,99320.25
2022-09-26T17:41:42.749Z,99326.31
2022-09-26T17:44:09.548Z,99328.09
2022-09-26T17:46:36.130Z,99333.47
2022-09-26T17:49:02.553Z,99334.50
2022-09-26T17:51:30.285Z,99332.84
2022-09-26T17:53:56.746Z,99335.50
2022-09-26T17:56:23.329Z,99331.97
2022-09-26T17:58:50.108Z,99336.41
2022-09-26T18:01:20.244Z,99337.81
2022-09-26T18:03:47.946Z,99339.00
2022-09-26T18:06:14.375Z,99346.75
2022-09-26T18:08:42.908Z,99347.28
2022-09-26T18:11:15.877Z,99352.00
2022-09-26T18:13:46.004Z,99348.44
2022-09-26T18:16:13.562Z,99356.34
2022-09-26T18:18:39.998Z,99357.53
2022-09-26T18:21:09.591Z,99369.69
2022-09-26T18:23:39.929Z,99366.91
2022-09-26T18:26:10.297Z,99370.16
2022-09-26T18:28:37.043Z,99382.75
2022-09-26T18:31:03.443Z,99386.78
2022-09-26T18:33:33.576Z,99390.84
2022-09-26T18:36:02.199Z,99389.50
2022-09-26T18:38:28.561Z,99404.94
2022-09-26T18:40:55.804Z,99406.44
2022-09-26T18:43:24.604Z,99399.34
2022-09-26T18:45:51.629Z,99410.06
2022-09-26T18:48:21.705Z,99408.59
2022-09-26T18:50:48.079Z,99412.88
2022-09-26T18:53:16.097Z,99402.53
2022-09-26T18:55:42.810Z,99411.94
2022-09-26T18:58:11.306Z,99416.50
2022-09-26T19:00:38.973Z,99420.19
2022-09-26T19:03:05.463Z,99426.53
2022-09-26T19:05:31.794Z,99423.03
2022-09-26T19:07:58.325Z,99425.34
2022-09-26T19:10:24.790Z,99422.84
2022-09-26T19:12:51.507Z,99432.19
2022-09-26T19:15:18.184Z,99435.63
2022-09-26T19:17:46.257Z,99435.03
2022-09-26T19:20:13.139Z,99438.38
2022-09-26T19:22:39.753Z,99418.13
2022-09-26T19:25:06.696Z,99431.38
2022-09-26T19:27:35.926Z,99427.56
2022-09-26T19:30:03.937Z,99440.81
2022-09-26T19:32:31.669Z,99455.00
2022-09-26T19:35:01.590Z,99458.19
2022-09-26T19:37:28.364Z,99460.88
2022-09-26T19:39:54.955Z,99464.31
2022-09-26T19:42:21.293Z,99458.16
2022-09-26T19:44:47.790Z,99452.09
2022-09-26T19:47:14.944Z,99453.50
2022-09-26T19:49:41.500Z,99458.53
2022-09-26T19:52:13.293Z,99467.44
2022-09-26T19:54:39.622Z,99461.38
2022-09-26T19:57:09.756Z,99460.22
2022-09-26T19:59:36.202Z,99466.22
2022-09-26T20:02:02.673Z,99463.69
2022-09-26T20:04:29.100Z,99461.75
2022-09-26T20:06:55.540Z,99464.66
2022-09-26T20:09:23.169Z,99473.13
2022-09-26T20:11:49.564Z,99469.41
2022-09-26T20:14:16.059Z,99470.25
2022-09-26T20:16:42.699Z,99471.94
2022-09-26T20:19:13.099Z,99469.94
2022-09-26T20:21:39.458Z,99473.66
2022-09-26T20:24:06.581Z,99470.78
2022-09-26T20:26:34.188Z,99469.19
2022-09-26T20:29:00.552Z,99471.06
2022-09-26T20:31:28.348Z,99471.28
2022-09-26T20:33:55.427Z,99462.47
2022-09-26T20:36:23.946Z,99470.88
2022-09-26T20:38:51.068Z,99474.25
2022-09-26T20:41:21.490Z,99476.63
2022-09-26T20:43:51.067Z,99489.22
2022-09-26T20:46:19.375Z,99487.72
2022-09-26T20:48:46.963Z,99489.56
2022-09-26T20:51:17.655Z,99486.22
2022-09-26T20:53:44.034Z,99494.59
2022-09-26T20:56:11.756Z,99490.66
2022-09-26T20:58:38.199Z,99493.94
2022-09-26T21:01:05.913Z,99504.06
2022-09-26T21:03:32.397Z,99490.53
2022-09-26T21:05:58.765Z,99497.41
2022-09-26T21:08:25.965Z,99506.16
2022-09-26T21:10:52.667Z,99498.94
2022-09-26T21:13:19.072Z,99506.16
2022-09-26T21:15:45.487Z,99503.28
2022-09-26T21:18:21.919Z,99504.63
2022-09-26T21:20:48.401Z,99508.59
2022-09-26T21:23:14.942Z,99512.91
2022-09-26T21:25:41.274Z,99513.97
2022-09-26T21:28:15.533Z,99510.81
2022-09-26T21:30:42.762Z,99504.31
2022-09-26T21:33:11.738Z,99508.97
2022-09-26T21:35:40.174Z,99510.66
2022-09-26T21:38:06.652Z,99504.13
2022-09-26T21:40:37.309Z,99496.94
2022-09-26T21:43:05.715Z,99507.47
2022-09-26T21:45:32.578Z,99505.09
2022-09-26T21:47:59.097Z,99506.00
2022-09-26T21:50:26.538Z,99504.53
2022-09-26T21:52:56.138Z,99508.44
2022-09-26T21:55:26.859Z,99505.44
2022-09-26T21:57:54.334Z,99488.50
2022-09-26T22:00:20.914Z,99493.19
2022-09-26T22:02:47.304Z,99501.09
2022-09-26T22:05:13.845Z,99498.63
2022-09-26T22:07:41.378Z,99497.28
2022-09-26T22:10:09.188Z,99500.69
2022-09-26T22:12:35.694Z,99499.63
2022-09-26T22:15:02.069Z,99493.81
2022-09-26T22:17:28.434Z,99496.84
2022-09-26T22:19:54.782Z,99481.59
2022-09-26T22:22:21.278Z,99486.88
2022-09-26T22:24:47.856Z,99486.06
2022-09-26T22:27:15.649Z,99490.03
2022-09-26T22:29:41.971Z,99491.91
2022-09-26T22:32:08.740Z,99491.38
2022-09-26T22:34:35.083Z,99488.28
2022-09-26T22:37:01.555Z,99487.22
2022-09-26T22:39:27.992Z,99484.94
2022-09-26T22:41:54.361Z,99483.63
2022-09-26T22:44:22.007Z,99479.63
2022-09-26T22:46:48.337Z,99484.28
2022-09-26T22:49:14.999Z,99491.50
2022-09-26T22:51:41.400Z,99485.00
2022-09-26T22:54:07.864Z,99490.34
2022-09-26T22:56:34.414Z,99495.50
2022-09-26T22:59:01.538Z,99500.09
2022-09-26T23:01:29.284Z,99492.28
2022-09-26T23:03:57.028Z,99488.97
2022-09-26T23:06:24.069Z,99481.78
2022-09-26T23:08:50.630Z,99463.34
2022-09-26T23:11:17.295Z,99465.19
2022-09-26T23:13:44.055Z,99467.03
2022-09-26T23:16:11.524Z,99472.59
2022-09-26T23:18:40.147Z,99479.63
2022-09-26T23:21:07.609Z,99471.13
2022-09-26T23:23:34.048Z,99476.88
2022-09-26T23:26:00.449Z,99486.53
2022-09-26T23:28:26.941Z,99488.59
2022-09-26T23:30:53.326Z,99489.28
2022-09-26T23:33:19.756Z,99479.09
2022-09-26T23:35:47.410Z,99494.03
2022-09-26T23:38:13.747Z,99486.13
2022-09-26T23:40:40.218Z,99489.50
2022-09-26T23:43:06.709Z,99489.22
2022-09-26T23:45:33.039Z,99497.25
2022-09-26T23:47:59.392Z,99495.03
2022-09-26T23:50:25.763Z,99501.56
2022-09-26T23:52:53.392Z,99503.00
2022-09-26T23:55:19.719Z,99508.59
2022-09-26T23:57:46.030Z,99508.44
